Aviation Digital Data Service (ADDS)

Output produced by METARs form (2224 UTC 01 July 2016)
found at http://aviationweather.gov/adds/metars/
 
KARA 012153Z VRB04KT 10SM CLR 35/19 A2999 RMK AO2 SLP153 T03500189 $